coovee.net alexa rank chart, coovee.net alexa rank daily changes

coovee.net alexa rank chart, coovee.net alexa rank daily changes

coovee.net
Actual rank:
96 980

RANK HISTORY

Date Rank Diff
2018/02/24 96 980 -407 800
2018/02/23 504 780 -356 093
2018/02/21 860 873 +764 042
2018/02/20 96 831 +2 391
2018/02/19 94 440 -12 347
2018/02/16 106 787 -342 838
2018/02/15 449 625 +411 166
2018/02/14 38 459 -59 038
2018/02/13 97 497 +49 425
2018/02/11 48 072 -25 989
2018/02/10 74 061 -1 601
2018/02/09 75 662 -394 016
2018/02/08 469 678 +442 759
2018/02/07 26 919 -627 874
2018/02/05 654 793 +581 636
2018/02/04 73 157 +48 392
2018/02/03 24 765 -7 246
2018/02/02 32 011 -20 519
2018/02/01 52 530 -19 786
2018/01/31 72 316 +32 092
2018/01/30 40 224 +392
2018/01/29 39 832 +1 418
2018/01/28 38 414 -1 258
2018/01/27 39 672 -497
2018/01/26 40 169 -2 009
2018/01/25 42 178 -1 653
2018/01/24 43 831 +338
2018/01/23 43 493 +1 037
2018/01/22 42 456 +492
2018/01/21 41 964 +367
2018/01/20 41 597 -209
2018/01/19 41 806 +1 116
2018/01/18 40 690 -584
2018/01/17 41 274 -806
2018/01/16 42 080 -315
2018/01/15 42 395 +69
2018/01/14 42 326 +457
2018/01/13 41 869 +2 646
2018/01/12 39 223 +392
2018/01/11 38 831 -1 278
2018/01/10 40 109 +824
2018/01/09 39 285 +210
2018/01/08 39 075 +2 034
2018/01/07 37 041 -160
2018/01/06 37 201 +289
2018/01/05 36 912 -376
2018/01/04 37 288 -1 652
2018/01/03 38 940 +61
2018/01/02 38 879 -35
2018/01/01 38 914 +373
2017/12/31 38 541 +315
2017/12/30 38 226 +260
2017/12/29 37 966 -252
2017/12/28 38 218 +681
2017/12/27 37 537 -1 430
2017/12/26 38 967

WIDGET FOR YOUR SITE

DOMAINS WITH THE NEAREST RANK

Domain Rank
searchlinks.com 96 975
330yt.org 96 976
gongbe.kr 96 977
subtitlesnet.com 96 978
forum-1c.ru 96 979
coovee.net 96 980
nullege.com 96 981
iitbombayx.in 96 982
carstickers.com 96 983
anschreiben.com 96 984
bollymeaning.com 96 985

DOMAINS WITH THE NEAREST RANK BY TLD .net

Domain Rank
happiest.net 96 918
antoniogenna.net 96 926
bluefx.net 96 941
creativetemplate.net 96 962
soundtrack.net 96 964
coovee.net 96 980
mangaraw.net 97 011
sonokinetic.net 97 023
sexpornxxx.net 97 034
phptester.net 97 045
kimnereli.net 97 046